Time;durP1;ratioP1;P1;durP2;ratioP2;P2;SDS_P1;SDS_P2;PMS_P1;PMS_P2;Temp;Humidity;BMP_temperature;BMP_pressure;BME280_temperature;BME280_humidity;BME280_pressure;Samples;Min_cycle;Max_cycle;Signal;HPM_P1;HPM_P2
2023/11/19 00:02:23;;;;;;;8.10;2.30;;;;;;;15.77;100.00;100610.16;20863332;28;20061;-75
2023/11/19 00:12:47;;;;;;;9.43;2.50;;;;;;;15.58;100.00;100624.50;20865281;28;20521;-74
2023/11/19 00:23:12;;;;;;;14.50;2.83;;;;;;;15.18;100.00;100638.91;20866848;28;20061;-74
2023/11/19 00:33:34;;;;;;;9.68;2.00;;;;;;;15.15;100.00;100634.50;20858435;28;20435;-75
2023/11/19 00:43:59;;;;;;;10.73;2.10;;;;;;;15.07;100.00;100642.50;20854192;28;20061;-74
2023/11/19 00:54:25;;;;;;;11.32;2.50;;;;;;;14.91;100.00;100654.09;20853249;28;20095;-74
2023/11/19 01:04:49;;;;;;;8.18;1.92;;;;;;;14.46;100.00;100655.09;20874528;28;20111;-74
2023/11/19 01:15:12;;;;;;;7.88;2.30;;;;;;;14.69;100.00;100668.34;20867443;28;20462;-74
2023/11/19 01:25:38;;;;;;;10.80;2.53;;;;;;;14.66;100.00;100679.84;20878141;28;20507;-73
2023/11/19 01:36:00;;;;;;;8.40;2.80;;;;;;;14.54;100.00;100677.22;20892005;28;20545;-73
2023/11/19 01:46:25;;;;;;;7.32;2.08;;;;;;;14.66;100.00;100693.16;20894548;28;20110;-73
2023/11/19 01:56:48;;;;;;;19.05;2.88;;;;;;;14.43;100.00;100696.75;20862344;28;20103;-73
2023/11/19 02:07:14;;;;;;;12.40;2.83;;;;;;;14.19;100.00;100706.44;20670776;28;20050;-73
2023/11/19 02:17:37;;;;;;;16.58;3.10;;;;;;;14.12;100.00;100699.34;20679624;28;20500;-73
2023/11/19 02:28:04;;;;;;;8.48;1.95;;;;;;;14.29;100.00;100671.06;20681657;28;20470;-74
2023/11/19 02:38:26;;;;;;;12.68;2.75;;;;;;;14.07;100.00;100661.31;20721756;28;20581;-73
2023/11/19 02:48:51;;;;;;;14.43;2.60;;;;;;;13.98;100.00;100680.78;20714708;28;20042;-74
2023/11/19 02:59:27;;;;;;;16.70;3.08;;;;;;;13.82;100.00;100639.22;20728784;28;20470;-74
2023/11/19 03:09:51;;;;;;;17.08;3.10;;;;;;;13.84;100.00;100649.84;20873221;28;20122;-74
2023/11/19 03:20:15;;;;;;;14.57;2.60;;;;;;;13.73;100.00;100619.72;20871059;28;20050;-74
2023/11/19 03:30:39;;;;;;;12.40;3.03;;;;;;;13.72;100.00;100628.59;20869944;28;20068;-74
2023/11/19 03:41:02;;;;;;;17.73;3.15;;;;;;;13.72;100.00;100639.22;20862069;28;20075;-74
2023/11/19 03:51:26;;;;;;;16.65;2.80;;;;;;;13.81;100.00;100660.44;20870008;28;20107;-74
2023/11/19 04:01:49;;;;;;;16.50;2.83;;;;;;;13.84;100.00;100676.38;20890486;28;20107;-75
2023/11/19 04:12:12;;;;;;;10.45;2.70;;;;;;;13.76;100.00;100676.34;20845786;28;20036;-74
2023/11/19 04:22:35;;;;;;;12.73;2.67;;;;;;;13.68;100.00;100701.09;20897545;28;20056;-74
2023/11/19 04:33:00;;;;;;;15.45;2.40;;;;;;;13.59;100.00;100707.25;20866897;28;20071;-74
2023/11/19 04:43:23;;;;;;;10.95;2.00;;;;;;;13.65;100.00;100732.94;20863226;28;20494;-74
2023/11/19 04:53:47;;;;;;;10.85;2.03;;;;;;;13.65;100.00;100715.25;20890110;28;20045;-74
2023/11/19 05:04:09;;;;;;;6.90;1.63;;;;;;;13.65;100.00;100743.53;20876631;28;20087;-74
2023/11/19 05:14:33;;;;;;;10.00;1.98;;;;;;;13.59;100.00;100727.63;20904406;28;20049;-74
2023/11/19 05:24:56;;;;;;;9.90;2.17;;;;;;;13.61;100.00;100721.41;20891244;28;20144;-75
2023/11/19 05:35:21;;;;;;;9.43;2.10;;;;;;;13.57;100.00;100757.66;20889067;28;20052;-74
2023/11/19 05:45:44;;;;;;;7.72;2.10;;;;;;;13.47;100.00;100761.16;20915976;28;20051;-73
2023/11/19 05:56:10;;;;;;;7.07;1.83;;;;;;;13.63;100.00;100785.09;20850901;28;20048;-74
2023/11/19 06:06:32;;;;;;;12.93;2.85;;;;;;;13.68;100.00;100812.50;20900076;28;20111;-73
2023/11/19 06:16:56;;;;;;;12.18;2.35;;;;;;;14.02;100.00;100834.72;20888721;28;20376;-74
2023/11/19 06:27:19;;;;;;;6.90;1.63;;;;;;;14.44;100.00;100823.34;20874207;28;20398;-74
2023/11/19 06:37:43;;;;;;;6.32;1.80;;;;;;;14.77;100.00;100815.34;20903733;28;20410;-74
2023/11/19 06:48:07;;;;;;;9.23;1.83;;;;;;;14.61;100.00;100853.47;20885727;28;20302;-74
2023/11/19 06:58:31;;;;;;;10.48;2.35;;;;;;;14.67;100.00;100862.31;20863794;28;20136;-74
2023/11/19 07:08:53;;;;;;;14.65;2.63;;;;;;;14.80;100.00;100873.84;20877119;28;20056;-74
2023/11/19 07:19:18;;;;;;;16.42;2.72;;;;;;;15.22;100.00;100885.34;20896634;28;20067;-75
2023/11/19 07:29:41;;;;;;;14.18;2.33;;;;;;;15.07;100.00;100897.75;20893025;28;20537;-75
2023/11/19 07:40:11;;;;;;;11.80;2.25;;;;;;;15.10;100.00;100903.06;20887817;28;20049;-73
2023/11/19 07:50:34;;;;;;;10.52;2.40;;;;;;;15.34;100.00;100906.59;20849637;28;20045;-74
2023/11/19 08:00:58;;;;;;;11.90;2.45;;;;;;;14.68;100.00;100924.31;20875001;28;20064;-73
2023/11/19 08:11:21;;;;;;;6.95;1.80;;;;;;;14.95;100.00;100907.50;20863383;28;20041;-73
2023/11/19 08:21:45;;;;;;;7.32;1.65;;;;;;;15.87;100.00;100915.38;20846972;28;20045;-73
2023/11/19 08:32:08;;;;;;;7.72;2.00;;;;;;;15.91;100.00;100901.13;20846393;28;20037;-73
2023/11/19 08:42:32;;;;;;;9.63;1.63;;;;;;;16.29;100.00;100903.59;20845873;28;20053;-73
2023/11/19 08:52:55;;;;;;;8.70;2.15;;;;;;;14.81;100.00;100918.13;20847110;28;20053;-74
2023/11/19 09:03:20;;;;;;;9.82;2.08;;;;;;;14.59;100.00;100940.22;20804933;28;20150;-73
2023/11/19 09:13:42;;;;;;;5.55;1.20;;;;;;;14.76;100.00;100927.88;20837546;28;20049;-73
2023/11/19 09:24:07;;;;;;;4.88;1.17;;;;;;;15.41;100.00;100940.28;20855094;28;20517;-73
2023/11/19 09:34:30;;;;;;;5.75;1.20;;;;;;;15.68;100.00;100940.28;20867684;28;20057;-72
2023/11/19 09:44:56;;;;;;;6.72;1.00;;;;;;;15.42;100.00;100920.78;20872256;28;20147;-72
2023/11/19 09:55:18;;;;;;;5.07;1.02;;;;;;;16.45;100.00;100920.41;20887723;28;20052;-74
2023/11/19 10:05:44;;;;;;;7.47;1.33;;;;;;;16.70;100.00;100937.16;20854752;28;20053;-73
2023/11/19 10:16:11;;;;;;;4.70;1.10;;;;;;;16.55;100.00;100939.88;20870438;28;20079;-73
2023/11/19 10:26:38;;;;;;;4.93;1.08;;;;;;;16.67;100.00;100969.19;20835819;28;20051;-73
2023/11/19 10:37:00;;;;;;;9.05;1.17;;;;;;;16.68;100.00;100976.25;20883472;28;20135;-74
2023/11/19 10:47:25;;;;;;;8.38;1.10;;;;;;;16.18;100.00;100989.81;20854378;28;20049;-73
2023/11/19 10:57:50;;;;;;;4.47;1.30;;;;;;;15.89;100.00;100993.44;20823133;28;20187;-73
2023/11/19 11:08:15;;;;;;;6.55;1.50;;;;;;;16.64;100.00;100974.50;20857811;28;20041;-73
2023/11/19 11:18:37;;;;;;;5.45;1.15;;;;;;;16.04;100.00;100984.53;20846715;28;20586;-73
2023/11/19 11:29:06;;;;;;;5.43;1.38;;;;;;;15.93;100.00;100994.31;20847897;28;20037;-73
2023/11/19 11:39:30;;;;;;;4.95;1.00;;;;;;;15.52;100.00;101005.00;20881505;28;20049;-73
2023/11/19 11:49:55;;;;;;;3.67;0.93;;;;;;;15.50;100.00;100988.13;20867922;28;20053;-74
2023/11/19 12:00:23;;;;;;;5.25;1.02;;;;;;;15.85;100.00;100990.78;20844763;28;20053;-74
2023/11/19 12:10:50;;;;;;;3.00;0.60;;;;;;;16.12;100.00;100981.84;20881299;28;20056;-74
2023/11/19 12:21:13;;;;;;;3.47;0.50;;;;;;;16.07;100.00;100995.19;20789346;28;20052;-74
2023/11/19 12:31:37;;;;;;;5.70;0.65;;;;;;;16.25;100.00;101012.88;20813518;28;20060;-74
2023/11/19 12:42:00;;;;;;;1.73;0.40;;;;;;;16.42;100.00;100995.03;20895381;28;20487;-74
2023/11/19 12:52:24;;;;;;;3.85;0.70;;;;;;;16.19;100.00;101000.47;20890140;28;20100;-73
2023/11/19 13:02:48;;;;;;;4.65;0.60;;;;;;;16.16;100.00;101013.78;20871403;28;20059;-73
2023/11/19 13:13:13;;;;;;;4.80;0.75;;;;;;;16.17;100.00;101022.66;20857763;28;20502;-72
2023/11/19 13:23:37;;;;;;;3.20;0.43;;;;;;;15.97;100.00;101008.50;20863069;28;20049;-72
2023/11/19 13:34:07;;;;;;;3.90;0.65;;;;;;;15.73;100.00;101028.97;20847456;28;20041;-71
2023/11/19 13:44:29;;;;;;;5.45;0.70;;;;;;;15.62;100.00;101046.69;20869806;28;20135;-71
2023/11/19 13:54:53;;;;;;;5.70;0.80;;;;;;;15.41;100.00;101044.03;20874443;28;20136;-72
2023/11/19 14:05:17;;;;;;;4.95;2.30;;;;;;;15.50;100.00;101066.19;20874214;28;20084;-72
2023/11/19 14:15:44;;;;;;;2.88;0.50;;;;;;;15.32;100.00;101073.28;20880769;28;20042;-72
2023/11/19 14:26:08;;;;;;;4.03;1.00;;;;;;;15.29;100.00;101086.59;20818604;28;20048;-72
2023/11/19 14:36:32;;;;;;;4.90;0.75;;;;;;;15.19;100.00;101098.09;20850765;28;20513;-73
2023/11/19 14:46:55;;;;;;;3.35;0.70;;;;;;;15.14;100.00;101127.34;20855710;28;20077;-74
2023/11/19 14:57:19;;;;;;;3.47;0.60;;;;;;;15.06;100.00;101153.91;20824362;28;20525;-73
2023/11/19 15:07:48;;;;;;;3.28;0.60;;;;;;;15.03;100.00;101155.66;20796775;28;20060;-74
2023/11/19 15:18:13;;;;;;;4.35;0.82;;;;;;;15.02;100.00;101160.09;20852513;28;20044;-73
2023/11/19 15:28:36;;;;;;;3.50;1.33;;;;;;;15.00;100.00;101164.50;20824053;28;20040;-74
2023/11/19 15:39:00;;;;;;;2.10;0.88;;;;;;;15.00;100.00;101148.56;20842792;28;20045;-74
2023/11/19 15:49:23;;;;;;;3.17;0.70;;;;;;;14.93;100.00;101159.16;20809538;28;20040;-74
2023/11/19 15:59:47;;;;;;;2.97;0.40;;;;;;;14.88;100.00;101177.75;20844216;28;20057;-74
2023/11/19 16:10:12;;;;;;;2.88;0.60;;;;;;;14.83;100.00;101199.88;20821798;28;20536;-74
2023/11/19 16:20:37;;;;;;;4.80;1.40;;;;;;;14.81;100.00;101197.22;20852435;28;20144;-74
2023/11/19 16:30:59;;;;;;;3.45;0.65;;;;;;;14.72;100.00;101189.19;20808939;28;20451;-74
2023/11/19 16:41:24;;;;;;;3.53;0.88;;;;;;;14.82;100.00;101200.75;20842773;28;20397;-73
2023/11/19 16:51:47;;;;;;;4.28;0.80;;;;;;;15.00;100.00;101200.84;20850660;28;20048;-74
2023/11/19 17:02:12;;;;;;;6.97;1.13;;;;;;;15.13;100.00;101211.53;20829260;28;20127;-74
2023/11/19 17:12:35;;;;;;;7.25;1.20;;;;;;;15.13;100.00;101227.50;20859435;28;20048;-73
2023/11/19 17:23:00;;;;;;;4.65;0.77;;;;;;;15.11;100.00;101215.97;20873593;28;20049;-72
2023/11/19 17:33:23;;;;;;;3.70;0.90;;;;;;;15.19;100.00;101225.75;20877113;28;20060;-73
2023/11/19 17:43:48;;;;;;;4.63;0.93;;;;;;;15.23;100.00;101219.56;20836013;28;20406;-73
2023/11/19 17:54:11;;;;;;;6.78;1.00;;;;;;;15.23;100.00;101240.84;20861086;28;20053;-72
2023/11/19 18:04:38;;;;;;;5.00;1.20;;;;;;;15.24;100.00;101232.84;20888514;28;20057;-71
2023/11/19 18:15:01;;;;;;;8.07;1.40;;;;;;;15.23;100.00;101235.53;20809378;28;20061;-72
2023/11/19 18:25:25;;;;;;;5.10;1.35;;;;;;;15.23;100.00;101248.81;20810304;28;20049;-72
2023/11/19 18:35:47;;;;;;;6.82;1.50;;;;;;;15.15;100.00;101243.47;20880115;28;20614;-72
2023/11/19 18:46:13;;;;;;;4.85;1.38;;;;;;;15.14;100.00;101231.94;20832960;28;20056;-73
2023/11/19 18:56:35;;;;;;;8.98;1.60;;;;;;;15.16;100.00;101227.50;20892013;28;20153;-72
2023/11/19 19:07:01;;;;;;;5.43;1.40;;;;;;;15.24;100.00;101239.94;20842492;28;20057;-72
2023/11/19 19:17:24;;;;;;;5.47;1.38;;;;;;;15.18;100.00;101246.13;20856105;28;20083;-73
2023/11/19 19:27:48;;;;;;;11.27;1.88;;;;;;;15.12;100.00;101241.69;20852582;28;20491;-72
2023/11/19 19:38:10;;;;;;;8.65;1.63;;;;;;;15.08;100.00;101257.63;20878206;28;20142;-72
2023/11/19 19:48:35;;;;;;;9.10;1.77;;;;;;;15.02;100.00;101270.88;20879672;28;20114;-73
2023/11/19 19:58:58;;;;;;;4.82;1.30;;;;;;;14.99;100.00;101262.88;20896578;28;20073;-72
2023/11/19 20:09:22;;;;;;;6.75;1.33;;;;;;;15.03;100.00;101275.31;20871049;28;20072;-72
2023/11/19 20:19:46;;;;;;;4.72;1.10;;;;;;;15.05;100.00;101293.03;20818353;28;20051;-73
2023/11/19 20:30:12;;;;;;;5.75;1.10;;;;;;;15.08;100.00;101292.19;20893796;28;20059;-72
2023/11/19 20:40:34;;;;;;;6.35;1.58;;;;;;;15.04;100.00;101301.91;20867840;28;20099;-72
2023/11/19 20:50:59;;;;;;;3.72;1.08;;;;;;;15.02;100.00;101309.00;20908892;28;20099;-73
2023/11/19 21:01:21;;;;;;;4.38;1.00;;;;;;;14.94;100.00;101316.03;20909020;28;20114;-73
2023/11/19 21:11:45;;;;;;;4.75;1.23;;;;;;;14.88;100.00;101309.78;20861650;28;20041;-73
2023/11/19 21:22:09;;;;;;;7.28;1.38;;;;;;;14.86;100.00;101311.53;20861928;28;20048;-73
2023/11/19 21:32:33;;;;;;;5.25;1.10;;;;;;;14.80;100.00;101311.50;20883167;28;20049;-74
2023/11/19 21:42:56;;;;;;;5.30;0.95;;;;;;;14.77;100.00;101330.94;20879208;28;20085;-74
2023/11/19 21:53:20;;;;;;;4.07;0.98;;;;;;;14.73;100.00;101327.41;20866260;28;20049;-74
2023/11/19 22:03:43;;;;;;;8.07;1.52;;;;;;;14.66;100.00;101325.56;20910783;28;20049;-73
2023/11/19 22:14:08;;;;;;;5.28;1.25;;;;;;;14.54;100.00;101351.16;20862801;28;20051;-73
2023/11/19 22:24:30;;;;;;;6.13;1.05;;;;;;;14.45;100.00;101346.63;20876510;28;20316;-73
2023/11/19 22:34:55;;;;;;;5.70;1.23;;;;;;;14.37;100.00;101335.03;20917936;28;20053;-72
2023/11/19 22:45:18;;;;;;;6.03;1.05;;;;;;;14.31;100.00;101335.84;20873782;28;20041;-73
2023/11/19 22:55:41;;;;;;;6.95;1.10;;;;;;;14.30;100.00;101339.41;20905375;28;20072;-73
2023/11/19 23:06:05;;;;;;;7.78;1.30;;;;;;;14.26;100.00;101324.28;20872864;28;20059;-73
2023/11/19 23:16:29;;;;;;;6.78;1.42;;;;;;;14.29;100.00;101326.09;20886481;28;20107;-73
2023/11/19 23:26:52;;;;;;;4.68;1.08;;;;;;;14.28;100.00;101317.25;20872353;28;20406;-73
2023/11/19 23:37:16;;;;;;;8.10;1.30;;;;;;;14.30;100.00;101306.63;20905855;28;20041;-73
2023/11/19 23:47:38;;;;;;;5.00;0.98;;;;;;;14.31;100.00;101293.34;20882973;28;20044;-73
2023/11/19 23:58:02;;;;;;;4.53;1.00;;;;;;;14.31;100.00;101281.81;20883341;28;20049;-73
